createdAt,value
2022-12-05T00:00:18.178Z,108.30
2022-12-05T00:01:29.354Z,60.80
2022-12-05T00:02:35.990Z,58.10
2022-12-05T00:03:09.269Z,72.30
2022-12-05T00:03:42.920Z,65.50
2022-12-05T00:04:16.276Z,102.20
2022-12-05T00:04:49.692Z,90.50
2022-12-05T00:05:25.555Z,73.80
2022-12-05T00:05:59.076Z,79.70
2022-12-05T00:06:34.216Z,100.30
2022-12-05T00:07:07.443Z,106.70
2022-12-05T00:07:41.034Z,60.30
2022-12-05T00:08:14.535Z,101.10
2022-12-05T00:08:49.168Z,101.50
2022-12-05T00:09:22.454Z,83.30
2022-12-05T00:09:56.409Z,87.90
2022-12-05T00:10:29.916Z,162.60
2022-12-05T00:11:03.534Z,79.70
2022-12-05T00:11:40.299Z,54.60
2022-12-05T00:12:13.550Z,58.70
2022-12-05T00:12:49.585Z,71.10
2022-12-05T00:13:22.744Z,72.60
2022-12-05T00:13:57.540Z,75.10
2022-12-05T00:14:31.046Z,119.20
2022-12-05T00:15:04.779Z,65.70
2022-12-05T00:15:41.470Z,104.00
2022-12-05T00:16:17.682Z,168.90
2022-12-05T00:16:51.115Z,82.70
2022-12-05T00:17:24.640Z,87.50
2022-12-05T00:17:57.987Z,90.10
2022-12-05T00:18:31.200Z,124.60
2022-12-05T00:19:06.115Z,117.40
2022-12-05T00:19:39.950Z,112.00
2022-12-05T00:20:13.330Z,82.80
2022-12-05T00:20:49.115Z,94.50
2022-12-05T00:21:25.144Z,155.30
2022-12-05T00:21:58.353Z,131.90
2022-12-05T00:22:31.668Z,123.40
2022-12-05T00:23:04.961Z,113.30
2022-12-05T00:23:38.218Z,123.60
2022-12-05T00:24:14.449Z,127.40
2022-12-05T00:24:47.663Z,137.80
2022-12-05T00:25:21.014Z,230.80
2022-12-05T00:25:54.427Z,137.50
2022-12-05T00:26:30.599Z,130.60
2022-12-05T00:27:04.014Z,202.10
2022-12-05T00:27:37.746Z,155.70
2022-12-05T00:28:11.004Z,146.30
2022-12-05T00:28:45.428Z,198.40
2022-12-05T00:29:19.088Z,174.30
2022-12-05T00:29:52.542Z,159.40
2022-12-05T00:30:25.870Z,184.20
2022-12-05T00:31:22.873Z,148.30
2022-12-05T00:31:56.501Z,125.80
2022-12-05T00:32:30.198Z,169.00
2022-12-05T00:33:03.472Z,138.10
2022-12-05T00:33:37.133Z,157.30
2022-12-05T00:34:10.900Z,208.30
2022-12-05T00:34:47.244Z,181.30
2022-12-05T00:35:20.895Z,102.20
2022-12-05T00:35:54.210Z,139.20
2022-12-05T00:36:30.229Z,134.60
2022-12-05T00:37:03.684Z,101.30
2022-12-05T00:37:37.670Z,160.90
2022-12-05T00:38:10.842Z,161.60
2022-12-05T00:38:44.630Z,184.90
2022-12-05T00:39:18.051Z,184.80
2022-12-05T00:39:51.312Z,98.40
2022-12-05T00:40:24.649Z,170.00
2022-12-05T00:41:09.899Z,200.80
2022-12-05T00:41:43.773Z,140.60
2022-12-05T00:42:17.186Z,115.60
2022-12-05T00:42:52.382Z,159.20
2022-12-05T00:43:25.901Z,154.00
2022-12-05T00:44:01.582Z,149.30
2022-12-05T00:44:34.969Z,161.00
2022-12-05T00:45:09.428Z,186.40
2022-12-05T00:45:42.736Z,174.90
2022-12-05T00:46:20.653Z,81.10
2022-12-05T00:46:54.054Z,150.60
2022-12-05T00:47:27.344Z,129.80
2022-12-05T00:48:00.568Z,183.10
2022-12-05T00:48:34.004Z,89.80
2022-12-05T00:49:08.277Z,182.80
2022-12-05T00:49:41.533Z,181.40
2022-12-05T00:50:14.973Z,135.10
2022-12-05T00:50:48.264Z,136.70
2022-12-05T00:51:27.289Z,33.20
2022-12-05T00:52:00.654Z,68.90
2022-12-05T00:52:33.941Z,180.80
2022-12-05T00:53:07.303Z,262.70
2022-12-05T00:53:41.034Z,175.90
2022-12-05T00:54:17.178Z,82.00
2022-12-05T00:54:50.508Z,166.50
2022-12-05T00:55:23.773Z,135.80
2022-12-05T00:55:57.259Z,25.00
2022-12-05T00:56:32.107Z,77.40
2022-12-05T00:57:05.392Z,173.20
2022-12-05T00:57:38.634Z,200.10
2022-12-05T00:58:11.901Z,194.80
2022-12-05T00:58:45.750Z,195.30
2022-12-05T00:59:23.138Z,195.80
2022-12-05T00:59:56.676Z,303.70
2022-12-05T01:00:30.078Z,225.30
2022-12-05T01:01:14.180Z,170.70
2022-12-05T01:01:51.530Z,151.50
2022-12-05T01:02:24.937Z,217.00
2022-12-05T01:02:58.334Z,248.10
2022-12-05T01:03:34.821Z,283.80
2022-12-05T01:04:12.086Z,261.40
2022-12-05T01:04:45.483Z,239.90
2022-12-05T01:05:18.913Z,195.20
2022-12-05T01:05:52.200Z,175.10
2022-12-05T01:06:27.163Z,270.00
2022-12-05T01:07:00.400Z,216.40
2022-12-05T01:07:34.811Z,237.10
2022-12-05T01:08:08.101Z,192.20
2022-12-05T01:08:41.767Z,150.90
2022-12-05T01:09:17.533Z,212.00
2022-12-05T01:09:50.968Z,89.20
2022-12-05T01:10:24.222Z,172.10
2022-12-05T01:10:58.818Z,203.30
2022-12-05T01:11:41.036Z,143.60
2022-12-05T01:12:14.874Z,289.40
2022-12-05T01:12:48.029Z,250.50
2022-12-05T01:13:21.867Z,148.50
2022-12-05T01:13:56.155Z,223.90
2022-12-05T01:14:29.462Z,156.90
2022-12-05T01:15:04.508Z,146.30
2022-12-05T01:15:37.933Z,161.50
2022-12-05T01:16:20.982Z,197.40
2022-12-05T01:16:56.352Z,60.10
2022-12-05T01:17:29.697Z,33.90
2022-12-05T01:18:05.743Z,82.50
2022-12-05T01:18:41.491Z,32.90
2022-12-05T01:19:19.809Z,20.80
2022-12-05T01:19:53.299Z,12.30
2022-12-05T01:20:26.571Z,27.80
2022-12-05T01:21:00.533Z,61.40
2022-12-05T01:21:37.357Z,284.80
2022-12-05T01:22:10.755Z,148.90
2022-12-05T01:22:44.495Z,28.90
2022-12-05T01:23:18.368Z,58.70
2022-12-05T01:23:51.901Z,37.20
2022-12-05T01:24:26.760Z,163.40
2022-12-05T01:25:00.092Z,51.30
2022-12-05T01:25:33.594Z,167.40
2022-12-05T01:26:13.193Z,63.30
2022-12-05T01:26:47.187Z,105.60
2022-12-05T01:27:20.425Z,12.70
2022-12-05T01:27:53.591Z,305.10
2022-12-05T01:28:26.932Z,14.70
2022-12-05T01:29:00.271Z,14.50
2022-12-05T01:29:33.528Z,19.20
2022-12-05T01:30:07.343Z,42.30
2022-12-05T01:30:42.421Z,48.40
2022-12-05T01:31:21.994Z,148.10
2022-12-05T01:31:55.391Z,18.20
2022-12-05T01:32:28.749Z,23.90
2022-12-05T01:33:01.980Z,189.90
2022-12-05T01:33:36.016Z,12.30
2022-12-05T01:34:12.763Z,26.90
2022-12-05T01:34:46.197Z,177.70
2022-12-05T01:35:19.558Z,286.80
2022-12-05T01:35:52.773Z,208.80
2022-12-05T01:36:27.148Z,296.50
2022-12-05T01:37:00.460Z,266.80
2022-12-05T01:37:33.629Z,119.00
2022-12-05T01:38:08.441Z,244.80
2022-12-05T01:38:42.878Z,198.70
2022-12-05T01:39:18.596Z,138.50
2022-12-05T01:39:51.864Z,103.20
2022-12-05T01:40:25.379Z,193.90
2022-12-05T01:41:03.726Z,174.40
2022-12-05T01:41:44.895Z,287.30
2022-12-05T01:42:59.856Z,209.10
2022-12-05T01:43:33.911Z,195.80
2022-12-05T01:44:11.561Z,247.40
2022-12-05T01:44:47.722Z,249.80
2022-12-05T01:45:37.900Z,272.00
2022-12-05T01:46:11.319Z,206.20
2022-12-05T01:46:49.043Z,227.20
2022-12-05T01:47:24.658Z,216.40
2022-12-05T01:47:58.375Z,244.50
2022-12-05T01:48:35.745Z,229.40
2022-12-05T01:49:18.364Z,206.80
2022-12-05T01:49:51.755Z,151.00
2022-12-05T01:50:25.133Z,175.30
2022-12-05T01:51:00.156Z,151.70
2022-12-05T01:51:34.623Z,97.00
2022-12-05T01:52:14.408Z,105.90
2022-12-05T01:52:48.277Z,98.10
2022-12-05T01:53:22.805Z,98.60
2022-12-05T01:53:56.606Z,134.50
2022-12-05T01:54:30.751Z,63.30
2022-12-05T01:55:09.193Z,49.70
2022-12-05T01:55:43.063Z,157.40
2022-12-05T01:56:17.700Z,82.10
2022-12-05T01:57:01.200Z,59.70
2022-12-05T01:57:37.830Z,21.10
2022-12-05T01:58:11.450Z,180.50
2022-12-05T01:58:49.083Z,74.10
2022-12-05T01:59:24.264Z,29.30
2022-12-05T02:00:02.578Z,70.90
2022-12-05T02:00:45.448Z,142.20
2022-12-05T02:01:19.498Z,137.80
2022-12-05T02:01:52.921Z,107.00
2022-12-05T02:02:28.317Z,114.60
2022-12-05T02:03:06.795Z,147.60
2022-12-05T02:03:41.827Z,140.30
2022-12-05T02:04:15.161Z,118.60
2022-12-05T02:04:59.134Z,94.40
2022-12-05T02:05:35.734Z,32.20
2022-12-05T02:06:09.724Z,116.70
2022-12-05T02:06:43.350Z,34.40
2022-12-05T02:07:18.008Z,52.00
2022-12-05T02:07:52.519Z,7.70
2022-12-05T02:08:28.863Z,7.80
2022-12-05T02:09:02.416Z,7.50
2022-12-05T02:09:36.655Z,6.90
2022-12-05T02:10:11.343Z,10.60
2022-12-05T02:10:47.661Z,7.50
2022-12-05T02:11:24.538Z,7.40
2022-12-05T02:12:02.264Z,36.90
2022-12-05T02:12:38.887Z,11.00
2022-12-05T02:13:36.773Z,85.70
2022-12-05T02:14:12.888Z,9.30
2022-12-05T02:15:10.494Z,116.00
2022-12-05T02:16:00.836Z,233.60
2022-12-05T02:17:07.154Z,128.70
2022-12-05T02:18:04.852Z,6.80
2022-12-05T02:18:47.097Z,79.10
2022-12-05T02:19:48.578Z,81.00
2022-12-05T02:20:27.204Z,202.10
2022-12-05T02:21:19.009Z,181.90
2022-12-05T02:22:23.080Z,45.40
2022-12-05T02:23:27.693Z,20.10
2022-12-05T02:24:27.329Z,10.20
2022-12-05T02:25:23.383Z,7.00
2022-12-05T02:26:05.305Z,6.70
2022-12-05T02:27:35.748Z,8.30
2022-12-05T02:28:16.961Z,9.50
2022-12-05T02:29:05.600Z,25.40
2022-12-05T02:29:57.324Z,7.70
2022-12-05T02:30:40.544Z,15.90
2022-12-05T02:31:39.974Z,9.10
2022-12-05T02:32:31.656Z,8.60
2022-12-05T02:33:29.215Z,11.50
2022-12-05T02:34:20.590Z,133.60
2022-12-05T02:35:00.909Z,126.10
2022-12-05T02:35:52.204Z,6.20
2022-12-05T02:36:41.114Z,109.60
2022-12-05T02:37:20.723Z,52.20
2022-12-05T02:38:03.364Z,115.60
2022-12-05T02:38:53.261Z,105.90
2022-12-05T02:39:35.747Z,83.60
2022-12-05T02:40:31.167Z,102.50
2022-12-05T02:41:23.559Z,76.30
2022-12-05T02:42:31.767Z,84.40
2022-12-05T02:43:14.913Z,90.80
2022-12-05T02:44:03.878Z,69.00
2022-12-05T02:44:40.678Z,85.20
2022-12-05T02:45:18.738Z,66.20
2022-12-05T02:46:02.587Z,74.00
2022-12-05T02:46:40.503Z,77.90
2022-12-05T02:47:18.062Z,66.60
2022-12-05T02:47:54.703Z,91.60
2022-12-05T02:48:36.319Z,88.30
2022-12-05T02:51:22.415Z,53.10
2022-12-05T02:51:58.460Z,36.80
2022-12-05T02:52:34.843Z,39.20
2022-12-05T02:53:12.640Z,88.50
2022-12-05T02:53:50.815Z,66.70
2022-12-05T02:54:28.060Z,103.80
2022-12-05T02:55:03.056Z,124.30
2022-12-05T02:55:40.601Z,86.40
2022-12-05T02:56:22.624Z,76.40
2022-12-05T02:57:01.408Z,43.60
2022-12-05T02:57:38.764Z,66.60
2022-12-05T02:58:17.733Z,100.70
2022-12-05T02:58:53.713Z,20.20
2022-12-05T03:00:14.998Z,4.80
2022-12-05T03:00:51.240Z,6.60
2022-12-05T03:01:28.775Z,38.10
2022-12-05T03:02:02.119Z,108.30
2022-12-05T03:02:43.412Z,10.00
2022-12-05T03:03:22.827Z,128.30
2022-12-05T03:03:59.354Z,28.90
2022-12-05T03:04:34.840Z,13.10
2022-12-05T03:05:41.333Z,6.90
2022-12-05T03:06:21.428Z,5.10
2022-12-05T03:06:59.206Z,8.50
2022-12-05T03:07:33.477Z,19.50
2022-12-05T03:08:11.958Z,86.70
2022-12-05T03:09:01.246Z,108.60
2022-12-05T03:09:44.549Z,44.10
2022-12-05T03:10:21.495Z,78.00
2022-12-05T03:10:56.797Z,92.90
2022-12-05T03:11:37.974Z,62.30
2022-12-05T03:12:26.225Z,83.30
2022-12-05T03:13:08.764Z,66.20
2022-12-05T03:13:49.897Z,52.90
2022-12-05T03:15:05.848Z,153.10
2022-12-05T03:15:47.279Z,128.70
2022-12-05T03:16:26.257Z,5.90
2022-12-05T03:17:08.458Z,5.10
2022-12-05T03:18:13.372Z,4.60
2022-12-05T03:18:58.619Z,4.90
2022-12-05T03:19:53.605Z,14.50
2022-12-05T03:20:34.828Z,126.30
2022-12-05T03:21:30.753Z,37.20
2022-12-05T03:22:16.668Z,91.20
2022-12-05T03:23:07.834Z,141.20
2022-12-05T03:23:47.995Z,124.60
2022-12-05T03:24:21.625Z,78.00
2022-12-05T03:24:57.587Z,111.50
2022-12-05T03:25:40.674Z,16.60
2022-12-05T03:26:20.783Z,12.40
2022-12-05T03:27:07.851Z,8.30
2022-12-05T03:27:50.061Z,45.40
2022-12-05T03:29:06.240Z,54.50
2022-12-05T03:30:21.672Z,9.40
2022-12-05T03:31:03.799Z,4.80
2022-12-05T03:32:05.622Z,4.50
2022-12-05T03:33:03.910Z,4.60
2022-12-05T03:33:48.304Z,4.70
2022-12-05T03:34:42.568Z,4.90
2022-12-05T03:35:32.103Z,5.00
2022-12-05T03:36:14.481Z,5.60
2022-12-05T03:36:53.034Z,5.20
2022-12-05T03:37:51.613Z,5.30
2022-12-05T03:39:18.758Z,6.70
2022-12-05T03:40:01.124Z,23.70
2022-12-05T03:41:02.642Z,37.90
2022-12-05T03:41:55.228Z,36.10
2022-12-05T03:42:38.489Z,53.70
2022-12-05T03:43:52.645Z,32.00
2022-12-05T03:44:41.976Z,35.40
2022-12-05T03:45:30.248Z,42.00
2022-12-05T03:46:20.156Z,65.20
2022-12-05T03:46:55.472Z,29.30
2022-12-05T03:47:39.413Z,35.90
2022-12-05T03:48:28.139Z,4.90
2022-12-05T03:49:15.522Z,5.80
2022-12-05T03:49:54.879Z,6.50
2022-12-05T03:50:31.973Z,5.00
2022-12-05T03:51:10.744Z,7.50
2022-12-05T03:52:01.263Z,27.30
2022-12-05T03:53:21.054Z,9.50
2022-12-05T03:54:05.979Z,6.70
2022-12-05T03:54:47.429Z,4.70
2022-12-05T03:55:25.364Z,10.80
2022-12-05T03:56:08.840Z,7.50
2022-12-05T03:56:55.283Z,6.30
2022-12-05T03:57:57.227Z,5.10
2022-12-05T03:58:45.099Z,5.10
2022-12-05T03:59:46.545Z,5.20
2022-12-05T04:00:24.693Z,5.40
2022-12-05T04:01:01.348Z,5.30
2022-12-05T04:01:38.041Z,10.00
2022-12-05T04:02:25.178Z,5.50
2022-12-05T04:03:14.592Z,7.00
2022-12-05T04:03:55.234Z,6.60
2022-12-05T04:04:48.424Z,7.10
2022-12-05T04:05:37.474Z,7.30
2022-12-05T04:06:37.275Z,18.80
2022-12-05T04:07:23.525Z,27.70
2022-12-05T04:08:04.675Z,19.20
2022-12-05T04:08:52.950Z,39.30
2022-12-05T04:09:35.452Z,44.10
2022-12-05T04:10:18.539Z,16.90
2022-12-05T04:11:03.376Z,20.00
2022-12-05T04:11:42.914Z,8.70
2022-12-05T04:12:29.645Z,13.60
2022-12-05T04:13:18.080Z,10.60
2022-12-05T04:13:59.745Z,8.00
2022-12-05T04:14:45.916Z,8.50
2022-12-05T04:15:49.568Z,86.40
2022-12-05T04:16:51.673Z,15.20
2022-12-05T04:17:34.341Z,11.00
2022-12-05T04:18:09.914Z,7.20
2022-12-05T04:19:00.112Z,5.90
2022-12-05T04:20:16.946Z,6.40
2022-12-05T04:21:11.661Z,7.20
2022-12-05T04:21:49.574Z,6.70
2022-12-05T04:22:25.177Z,6.70
2022-12-05T04:23:01.536Z,6.70
2022-12-05T04:23:44.817Z,7.00
2022-12-05T04:24:50.696Z,6.40
2022-12-05T04:25:35.844Z,6.80
2022-12-05T04:26:23.966Z,6.80
2022-12-05T04:27:09.269Z,6.80
2022-12-05T04:28:06.401Z,8.50
2022-12-05T04:29:10.968Z,6.30
2022-12-05T04:29:59.531Z,6.60
2022-12-05T04:30:46.034Z,7.30
2022-12-05T04:31:28.345Z,6.40
2022-12-05T04:32:06.917Z,6.90
2022-12-05T04:32:46.842Z,6.80
2022-12-05T04:33:41.444Z,9.30
2022-12-05T04:34:16.394Z,8.80
2022-12-05T04:34:58.038Z,22.50
2022-12-05T04:35:40.813Z,9.70
2022-12-05T04:36:23.622Z,13.50
2022-12-05T04:37:04.068Z,11.00
2022-12-05T04:37:42.854Z,15.70
2022-12-05T04:38:47.323Z,14.70
2022-12-05T04:39:42.633Z,11.40
2022-12-05T04:40:27.244Z,12.20
2022-12-05T04:41:07.823Z,11.50
2022-12-05T04:41:46.911Z,13.10
2022-12-05T04:42:27.270Z,22.40
2022-12-05T04:43:03.873Z,19.90
2022-12-05T04:43:50.840Z,15.30
2022-12-05T04:44:35.386Z,13.30
2022-12-05T04:45:21.367Z,17.20
2022-12-05T04:46:01.423Z,15.40
2022-12-05T04:46:38.477Z,13.70
2022-12-05T04:47:15.135Z,11.50
2022-12-05T04:47:55.778Z,14.20
2022-12-05T04:48:35.075Z,20.80
2022-12-05T04:49:15.282Z,11.30
2022-12-05T04:49:53.969Z,10.30
2022-12-05T04:50:34.254Z,12.50
2022-12-05T04:51:09.957Z,11.40
2022-12-05T04:51:44.830Z,12.20
2022-12-05T04:52:24.759Z,14.10
2022-12-05T04:53:12.450Z,13.10
2022-12-05T04:54:00.848Z,20.10
2022-12-05T04:54:45.934Z,44.50
2022-12-05T04:55:30.881Z,44.20
2022-12-05T04:56:05.454Z,60.30
2022-12-05T04:56:41.168Z,82.70
2022-12-05T04:57:33.752Z,147.00
2022-12-05T04:58:12.076Z,106.30
2022-12-05T04:58:53.326Z,95.70
2022-12-05T04:59:33.227Z,123.20
2022-12-05T05:00:08.374Z,69.40
2022-12-05T05:01:02.513Z,56.90
2022-12-05T05:01:50.189Z,57.60
2022-12-05T05:02:45.046Z,48.10
2022-12-05T05:03:32.189Z,59.10
2022-12-05T05:04:17.306Z,37.10
2022-12-05T05:04:57.519Z,41.10
2022-12-05T05:05:35.472Z,84.20
2022-12-05T05:06:12.196Z,85.90
2022-12-05T05:06:45.604Z,41.30
2022-12-05T05:07:23.044Z,110.50
2022-12-05T05:07:59.106Z,50.30
2022-12-05T05:08:32.543Z,84.30
2022-12-05T05:09:11.557Z,105.70
2022-12-05T05:09:45.108Z,33.30
2022-12-05T05:10:36.885Z,57.30
2022-12-05T05:11:17.888Z,36.30
2022-12-05T05:11:56.658Z,16.50
2022-12-05T05:12:32.384Z,39.60
2022-12-05T05:13:05.871Z,30.30
2022-12-05T05:13:41.989Z,14.20
2022-12-05T05:14:15.279Z,12.30
2022-12-05T05:14:48.591Z,9.10
2022-12-05T05:15:21.905Z,16.40
2022-12-05T05:15:55.353Z,9.80
2022-12-05T05:16:31.884Z,9.50
2022-12-05T05:17:08.733Z,9.90
2022-12-05T05:17:41.960Z,9.20
2022-12-05T05:18:15.201Z,9.80
2022-12-05T05:18:49.544Z,11.00
2022-12-05T05:19:23.061Z,10.80
2022-12-05T05:20:19.924Z,9.60
2022-12-05T05:20:53.516Z,9.80
2022-12-05T05:21:32.618Z,12.00
2022-12-05T05:22:05.909Z,11.70
2022-12-05T05:22:39.069Z,18.50
2022-12-05T05:23:14.925Z,21.90
2022-12-05T05:23:48.667Z,31.50
2022-12-05T05:24:23.652Z,32.20
2022-12-05T05:24:57.003Z,15.10
2022-12-05T05:25:30.272Z,29.10
2022-12-05T05:26:06.453Z,12.70
2022-12-05T05:26:42.730Z,15.10
2022-12-05T05:27:18.483Z,23.60
2022-12-05T05:27:54.184Z,23.20
2022-12-05T05:28:27.410Z,23.50
2022-12-05T05:29:00.760Z,35.10
2022-12-05T05:29:34.037Z,32.10
2022-12-05T05:30:07.925Z,40.30
2022-12-05T05:30:41.155Z,29.10
2022-12-05T05:31:15.300Z,22.50
2022-12-05T05:31:52.776Z,35.70
2022-12-05T05:32:26.003Z,32.50
2022-12-05T05:33:00.853Z,18.20
2022-12-05T05:33:35.174Z,30.80
2022-12-05T05:34:09.944Z,23.40
2022-12-05T05:34:43.393Z,21.50
2022-12-05T05:35:17.144Z,43.40
2022-12-05T05:35:50.350Z,17.70
2022-12-05T05:36:25.893Z,17.20
2022-12-05T05:37:02.404Z,21.10
2022-12-05T05:37:35.645Z,16.10
2022-12-05T05:38:08.923Z,19.60
2022-12-05T05:38:49.634Z,32.00
2022-12-05T05:39:23.134Z,20.00
2022-12-05T05:39:58.818Z,32.00
2022-12-05T05:40:38.067Z,20.10
2022-12-05T05:41:19.673Z,15.60
2022-12-05T05:41:52.864Z,29.60
2022-12-05T05:42:26.241Z,32.80
2022-12-05T05:42:59.499Z,34.60
2022-12-05T05:43:32.891Z,31.50
2022-12-05T05:44:06.266Z,51.50
2022-12-05T05:44:39.496Z,58.60
2022-12-05T05:45:14.574Z,49.70
2022-12-05T05:45:47.834Z,36.60
2022-12-05T05:46:24.873Z,29.90
2022-12-05T05:47:00.708Z,31.40
2022-12-05T05:47:35.224Z,34.20
2022-12-05T05:48:08.425Z,44.50
2022-12-05T05:48:44.868Z,85.10
2022-12-05T05:49:18.280Z,32.20
2022-12-05T05:49:51.774Z,70.40
2022-12-05T05:50:29.064Z,86.70
2022-12-05T05:51:03.644Z,44.00
2022-12-05T05:51:41.961Z,50.80
2022-12-05T05:52:15.168Z,81.20
2022-12-05T05:52:51.003Z,79.50
2022-12-05T05:53:26.395Z,62.10
2022-12-05T05:54:02.516Z,69.50
2022-12-05T05:54:35.778Z,45.30
2022-12-05T05:55:09.767Z,51.30
2022-12-05T05:55:43.319Z,35.60
2022-12-05T05:56:21.839Z,26.50
2022-12-05T05:56:55.583Z,31.50
2022-12-05T05:57:31.058Z,25.60
2022-12-05T05:58:08.004Z,35.30
2022-12-05T05:58:44.480Z,16.10
2022-12-05T05:59:18.065Z,23.00
2022-12-05T05:59:51.460Z,20.80
2022-12-05T06:00:24.646Z,17.60
2022-12-05T06:01:24.554Z,18.90
2022-12-05T06:01:57.896Z,11.70
2022-12-05T06:02:33.921Z,16.60
2022-12-05T06:03:08.421Z,13.60
2022-12-05T06:03:42.801Z,14.40
2022-12-05T06:04:17.233Z,14.20
2022-12-05T06:04:50.850Z,18.20
2022-12-05T06:05:26.169Z,13.20
2022-12-05T06:06:01.627Z,12.90
2022-12-05T06:06:35.123Z,15.50
2022-12-05T06:07:08.396Z,23.00
2022-12-05T06:07:41.788Z,19.20
2022-12-05T06:08:15.174Z,23.10
2022-12-05T06:08:48.772Z,27.20
2022-12-05T06:09:21.998Z,22.20
2022-12-05T06:09:55.498Z,63.10
2022-12-05T06:10:30.288Z,43.70
2022-12-05T06:11:18.900Z,29.30
2022-12-05T06:11:58.588Z,21.80
2022-12-05T06:12:31.786Z,16.00
2022-12-05T06:13:07.432Z,11.60
2022-12-05T06:13:41.598Z,18.80
2022-12-05T06:14:15.142Z,49.70
2022-12-05T06:14:49.928Z,13.00
2022-12-05T06:15:24.857Z,27.80
2022-12-05T06:15:58.078Z,33.10
2022-12-05T06:16:32.245Z,60.80
2022-12-05T06:17:05.624Z,30.40
2022-12-05T06:17:39.019Z,26.10
2022-12-05T06:18:12.298Z,30.50
2022-12-05T06:18:47.805Z,62.80
2022-12-05T06:19:21.216Z,17.70
2022-12-05T06:19:54.550Z,36.20
2022-12-05T06:20:27.791Z,38.90
2022-12-05T06:21:05.921Z,24.40
2022-12-05T06:21:39.388Z,24.00
2022-12-05T06:22:22.973Z,31.80
2022-12-05T06:22:58.724Z,27.00
2022-12-05T06:23:32.017Z,16.10
2022-12-05T06:24:05.603Z,20.10
2022-12-05T06:24:38.893Z,21.60
2022-12-05T06:25:12.184Z,30.20
2022-12-05T06:25:50.455Z,32.60
2022-12-05T06:26:24.306Z,39.70
2022-12-05T06:26:57.537Z,37.70
2022-12-05T06:27:31.950Z,25.90
2022-12-05T06:28:06.341Z,13.60
2022-12-05T06:28:40.113Z,19.60
2022-12-05T06:29:13.478Z,18.20
2022-12-05T06:29:46.624Z,15.70
2022-12-05T06:30:20.046Z,26.10
2022-12-05T06:30:55.251Z,24.30
2022-12-05T06:31:31.317Z,16.30
2022-12-05T06:32:04.925Z,17.10
2022-12-05T06:32:38.236Z,22.60
2022-12-05T06:33:12.480Z,25.20
2022-12-05T06:33:46.357Z,18.90
2022-12-05T06:34:19.576Z,20.80
2022-12-05T06:34:52.810Z,38.70
2022-12-05T06:35:26.114Z,43.00
2022-12-05T06:36:08.034Z,39.90
2022-12-05T06:36:41.188Z,37.50
2022-12-05T06:37:14.483Z,22.00
2022-12-05T06:37:50.044Z,18.40
2022-12-05T06:38:23.267Z,21.80
2022-12-05T06:38:57.968Z,25.50
2022-12-05T06:39:33.874Z,21.10
2022-12-05T06:40:07.700Z,16.70
2022-12-05T06:40:45.356Z,22.70
2022-12-05T06:41:24.570Z,30.10
2022-12-05T06:41:57.899Z,20.90
2022-12-05T06:42:32.928Z,15.80
2022-12-05T06:43:06.213Z,18.00
2022-12-05T06:43:39.401Z,18.90
2022-12-05T06:44:12.639Z,18.10
2022-12-05T06:44:45.930Z,18.00
2022-12-05T06:45:19.522Z,19.90
2022-12-05T06:45:52.862Z,21.00
2022-12-05T06:46:26.672Z,21.20
2022-12-05T06:46:59.919Z,21.50
2022-12-05T06:47:33.132Z,19.30
2022-12-05T06:48:07.128Z,28.00
2022-12-05T06:48:40.423Z,38.70
2022-12-05T06:49:16.663Z,27.00
2022-12-05T06:49:49.944Z,22.10
2022-12-05T06:50:25.283Z,48.80
2022-12-05T06:50:58.595Z,33.90
2022-12-05T06:51:31.971Z,71.50
2022-12-05T06:52:07.666Z,43.00
2022-12-05T06:52:40.977Z,30.50
2022-12-05T06:53:14.259Z,33.50
2022-12-05T06:53:47.575Z,71.10
2022-12-05T06:54:20.749Z,43.00
2022-12-05T06:54:54.119Z,52.30
2022-12-05T06:55:27.467Z,61.60
2022-12-05T06:56:03.191Z,52.00
2022-12-05T06:56:36.568Z,46.50
2022-12-05T06:57:10.285Z,53.60
2022-12-05T06:57:43.484Z,37.60
2022-12-05T06:58:16.849Z,35.10
2022-12-05T06:58:52.609Z,51.60
2022-12-05T06:59:28.284Z,47.90
2022-12-05T07:00:22.039Z,46.40
2022-12-05T07:01:16.857Z,23.30
2022-12-05T07:01:50.484Z,35.10
2022-12-05T07:02:24.050Z,66.00
2022-12-05T07:02:57.409Z,44.10
2022-12-05T07:03:30.665Z,72.00
2022-12-05T07:04:07.438Z,26.90
2022-12-05T07:04:40.741Z,80.60
2022-12-05T07:05:14.014Z,38.10
2022-12-05T07:05:47.302Z,71.40
2022-12-05T07:06:20.571Z,41.50
2022-12-05T07:06:55.701Z,49.50
2022-12-05T07:07:30.106Z,64.10
2022-12-05T07:08:03.541Z,31.50
2022-12-05T07:08:36.794Z,50.20
2022-12-05T07:09:10.829Z,49.90
2022-12-05T07:09:48.655Z,62.10
2022-12-05T07:10:21.846Z,94.60
2022-12-05T07:10:57.816Z,67.10
2022-12-05T07:11:31.420Z,40.70
2022-12-05T07:12:04.857Z,88.40
2022-12-05T07:12:38.139Z,155.20
2022-12-05T07:13:15.567Z,86.90
2022-12-05T07:13:49.349Z,59.40
2022-12-05T07:14:46.392Z,53.90
2022-12-05T07:15:17.624Z,94.50
2022-12-05T07:15:51.421Z,65.10
2022-12-05T07:16:25.007Z,33.50
2022-12-05T07:16:58.376Z,88.70
2022-12-05T07:17:36.627Z,105.40
2022-12-05T07:18:09.804Z,147.20
2022-12-05T07:18:43.018Z,118.30
2022-12-05T07:19:16.355Z,105.70
2022-12-05T07:19:50.966Z,79.20
2022-12-05T07:20:24.279Z,107.40
2022-12-05T07:21:15.264Z,67.60
2022-12-05T07:21:48.648Z,86.00
2022-12-05T07:22:27.913Z,79.80
2022-12-05T07:23:01.136Z,123.10
2022-12-05T07:23:34.338Z,81.60
2022-12-05T07:24:08.599Z,101.20
2022-12-05T07:24:41.885Z,157.90
2022-12-05T07:25:15.134Z,43.30
2022-12-05T07:25:48.339Z,102.10
2022-12-05T07:26:23.993Z,91.50
2022-12-05T07:26:59.411Z,123.90
2022-12-05T07:27:34.252Z,155.50
2022-12-05T07:28:08.549Z,111.40
2022-12-05T07:28:42.615Z,52.90
2022-12-05T07:29:16.008Z,117.40
2022-12-05T07:29:49.183Z,102.30
2022-12-05T07:30:22.509Z,120.60
2022-12-05T07:31:03.127Z,117.70
2022-12-05T07:31:37.157Z,194.80
2022-12-05T07:32:10.742Z,105.00
2022-12-05T07:32:45.004Z,84.70
2022-12-05T07:33:18.347Z,90.60
2022-12-05T07:33:51.684Z,48.60
2022-12-05T07:34:25.109Z,70.00
2022-12-05T07:34:58.384Z,43.10
2022-12-05T07:35:31.589Z,116.10
2022-12-05T07:36:49.410Z,107.10
2022-12-05T07:37:26.113Z,91.30
2022-12-05T07:37:59.344Z,126.40
2022-12-05T07:38:33.058Z,71.90
2022-12-05T07:39:06.313Z,57.40
2022-12-05T07:39:39.830Z,59.80
2022-12-05T07:40:13.568Z,60.20
2022-12-05T07:40:46.760Z,90.30
2022-12-05T07:41:23.158Z,47.10
2022-12-05T07:41:56.530Z,76.90
2022-12-05T07:42:29.738Z,130.40
2022-12-05T07:43:02.974Z,97.10
2022-12-05T07:43:37.613Z,58.00
2022-12-05T07:44:14.737Z,159.10
2022-12-05T07:44:47.990Z,161.40
2022-12-05T07:45:21.523Z,92.00
2022-12-05T07:45:54.861Z,82.70
2022-12-05T07:46:30.684Z,157.00
2022-12-05T07:47:03.977Z,200.30
2022-12-05T07:47:37.180Z,111.00
2022-12-05T07:48:13.310Z,145.30
2022-12-05T07:48:51.090Z,97.40
2022-12-05T07:49:24.344Z,154.80
2022-12-05T07:49:58.104Z,138.80
2022-12-05T07:50:31.514Z,108.10
2022-12-05T07:51:06.597Z,97.00
2022-12-05T07:51:42.974Z,137.10
2022-12-05T07:52:18.284Z,146.70
2022-12-05T07:52:54.037Z,169.20
2022-12-05T07:53:31.487Z,112.80
2022-12-05T07:54:07.504Z,187.20
2022-12-05T07:54:41.684Z,168.60
2022-12-05T07:55:14.922Z,118.20
2022-12-05T07:55:51.618Z,54.40
2022-12-05T07:56:24.902Z,133.40
2022-12-05T07:57:00.365Z,147.70
2022-12-05T07:57:36.694Z,171.80
2022-12-05T07:58:09.855Z,188.20
2022-12-05T07:58:44.734Z,136.70
2022-12-05T07:59:18.141Z,142.30
2022-12-05T07:59:51.408Z,123.40
2022-12-05T08:00:24.611Z,106.90
2022-12-05T08:01:08.798Z,102.10
2022-12-05T08:01:42.334Z,92.10
2022-12-05T08:02:15.888Z,43.70
2022-12-05T08:02:49.454Z,68.20
2022-12-05T08:03:24.042Z,125.50
2022-12-05T08:03:59.353Z,67.70
2022-12-05T08:04:34.969Z,81.10
2022-12-05T08:05:11.314Z,70.80
2022-12-05T08:05:44.657Z,180.80
2022-12-05T08:06:22.837Z,118.70
2022-12-05T08:06:58.593Z,102.90
2022-12-05T08:07:36.133Z,159.00
2022-12-05T08:08:09.527Z,104.40
2022-12-05T08:08:54.338Z,68.20
2022-12-05T08:09:28.905Z,101.50
2022-12-05T08:10:02.114Z,59.70
2022-12-05T08:10:35.690Z,101.70
2022-12-05T08:11:12.336Z,126.80
2022-12-05T08:11:51.060Z,104.10
2022-12-05T08:12:25.768Z,77.90
2022-12-05T08:13:00.281Z,104.70
2022-12-05T08:13:34.372Z,115.80
2022-12-05T08:14:07.735Z,94.80
2022-12-05T08:14:40.982Z,141.00
2022-12-05T08:15:14.408Z,115.80